createdAt,value
2022-09-21T00:00:09.740Z,10.91
2022-09-21T00:01:09.898Z,10.87
2022-09-21T00:02:09.770Z,10.91
2022-09-21T00:03:09.725Z,10.80
2022-09-21T00:04:09.799Z,10.86
2022-09-21T00:05:09.737Z,10.80
2022-09-21T00:06:09.724Z,10.83
2022-09-21T00:07:09.669Z,10.83
2022-09-21T00:08:09.653Z,10.82
2022-09-21T00:09:09.646Z,10.76
2022-09-21T00:10:09.643Z,10.76
2022-09-21T00:11:09.655Z,10.72
2022-09-21T00:12:09.605Z,10.75
2022-09-21T00:13:09.608Z,10.72
2022-09-21T00:14:09.585Z,10.75
2022-09-21T00:15:09.571Z,10.78
2022-09-21T00:16:09.629Z,10.73
2022-09-21T00:17:09.549Z,10.70
2022-09-21T00:18:09.559Z,10.67
2022-09-21T00:19:09.541Z,10.68
2022-09-21T00:20:09.524Z,10.76
2022-09-21T00:21:09.548Z,10.68
2022-09-21T00:22:09.515Z,10.64
2022-09-21T00:23:09.489Z,10.65
2022-09-21T00:24:09.490Z,10.64
2022-09-21T00:25:09.478Z,10.55
2022-09-21T00:26:09.480Z,10.62
2022-09-21T00:27:09.443Z,10.60
2022-09-21T00:28:09.444Z,10.65
2022-09-21T00:29:09.419Z,10.65
2022-09-21T00:30:09.406Z,10.58
2022-09-21T00:31:09.410Z,10.52
2022-09-21T00:32:09.403Z,10.58
2022-09-21T00:33:09.384Z,10.58
2022-09-21T00:34:09.545Z,10.57
2022-09-21T00:35:09.356Z,10.55
2022-09-21T00:36:09.350Z,10.57
2022-09-21T00:37:09.336Z,10.43
2022-09-21T00:38:09.340Z,10.52
2022-09-21T00:39:09.336Z,10.52
2022-09-21T00:40:09.347Z,10.54
2022-09-21T00:41:09.322Z,10.49
2022-09-21T00:42:09.285Z,10.46
2022-09-21T00:43:09.272Z,10.43
2022-09-21T00:44:09.267Z,10.46
2022-09-21T00:45:09.246Z,10.42
2022-09-21T00:46:09.330Z,10.43
2022-09-21T00:47:09.232Z,10.39
2022-09-21T00:48:09.213Z,10.45
2022-09-21T00:49:09.258Z,10.39
2022-09-21T00:50:09.222Z,10.45
2022-09-21T00:51:09.193Z,10.43
2022-09-21T00:52:09.171Z,10.46
2022-09-21T00:53:09.159Z,10.35
2022-09-21T00:54:09.160Z,10.36
2022-09-21T00:55:09.141Z,10.35
2022-09-21T00:56:09.165Z,10.41
2022-09-21T00:57:09.149Z,10.35
2022-09-21T00:58:09.107Z,10.35
2022-09-21T00:59:09.095Z,10.30
2022-09-21T01:00:09.084Z,10.30
2022-09-21T01:01:09.139Z,10.31
2022-09-21T01:02:09.101Z,10.27
2022-09-21T01:03:09.071Z,10.26
2022-09-21T01:04:09.086Z,10.31
2022-09-21T01:05:09.057Z,10.28
2022-09-21T01:06:09.048Z,10.24
2022-09-21T01:07:09.017Z,10.23
2022-09-21T01:08:09.020Z,10.21
2022-09-21T01:09:08.994Z,10.27
2022-09-21T01:10:08.984Z,10.26
2022-09-21T01:11:08.984Z,10.27
2022-09-21T01:12:08.989Z,10.23
2022-09-21T01:13:08.946Z,10.18
2022-09-21T01:14:08.929Z,10.17
2022-09-21T01:15:08.925Z,10.20
2022-09-21T01:16:08.966Z,10.30
2022-09-21T01:17:08.900Z,10.23
2022-09-21T01:18:08.887Z,10.18
2022-09-21T01:19:08.935Z,10.23
2022-09-21T01:20:08.866Z,10.17
2022-09-21T01:21:08.874Z,10.10
2022-09-21T01:22:08.861Z,10.12
2022-09-21T01:23:08.831Z,10.17
2022-09-21T01:24:08.827Z,10.12
2022-09-21T01:25:08.833Z,10.18
2022-09-21T01:26:08.843Z,10.12
2022-09-21T01:27:08.797Z,10.08
2022-09-21T01:28:08.788Z,10.12
2022-09-21T01:29:08.782Z,10.10
2022-09-21T01:30:08.765Z,10.14
2022-09-21T01:31:08.807Z,10.05
2022-09-21T01:32:08.778Z,10.09
2022-09-21T01:33:08.723Z,10.05
2022-09-21T01:34:08.747Z,10.08
2022-09-21T01:35:08.713Z,10.05
2022-09-21T01:36:08.712Z,10.14
2022-09-21T01:37:08.696Z,10.05
2022-09-21T01:38:08.692Z,10.08
2022-09-21T01:39:08.661Z,10.09
2022-09-21T01:40:08.672Z,9.99
2022-09-21T01:41:08.679Z,10.08
2022-09-21T01:42:08.630Z,10.01
2022-09-21T01:43:08.625Z,10.05
2022-09-21T01:44:08.606Z,10.05
2022-09-21T01:45:08.601Z,9.98
2022-09-21T01:46:08.601Z,10.05
2022-09-21T01:47:08.587Z,10.01
2022-09-21T01:48:08.564Z,9.99
2022-09-21T01:49:08.621Z,10.03
2022-09-21T01:50:08.550Z,9.94
2022-09-21T01:51:08.546Z,9.93
2022-09-21T01:52:08.522Z,9.94
2022-09-21T01:53:08.505Z,10.01
2022-09-21T01:54:08.525Z,9.90
2022-09-21T01:55:08.487Z,9.96
2022-09-21T01:56:08.484Z,9.88
2022-09-21T01:57:08.462Z,10.01
2022-09-21T01:58:08.455Z,9.87
2022-09-21T01:59:08.443Z,9.87
2022-09-21T02:00:08.436Z,9.85
2022-09-21T02:01:08.497Z,9.81
2022-09-21T02:02:08.456Z,9.85
2022-09-21T02:03:08.401Z,9.87
2022-09-21T02:04:08.392Z,9.87
2022-09-21T02:05:08.380Z,9.75
2022-09-21T02:06:08.392Z,9.85
2022-09-21T02:07:08.395Z,9.84
2022-09-21T02:08:08.350Z,9.80
2022-09-21T02:09:08.331Z,9.83
2022-09-21T02:10:08.363Z,9.84
2022-09-21T02:11:08.329Z,9.77
2022-09-21T02:12:08.319Z,9.77
2022-09-21T02:13:08.301Z,9.77
2022-09-21T02:14:08.281Z,9.72
2022-09-21T02:15:08.271Z,9.81
2022-09-21T02:16:08.376Z,9.70
2022-09-21T02:17:08.254Z,9.78
2022-09-21T02:18:08.242Z,9.78
2022-09-21T02:19:08.288Z,9.77
2022-09-21T02:20:08.214Z,9.80
2022-09-21T02:21:08.216Z,9.77
2022-09-21T02:22:08.196Z,9.73
2022-09-21T02:23:08.190Z,9.72
2022-09-21T02:24:08.175Z,9.73
2022-09-21T02:25:08.154Z,9.69
2022-09-21T02:26:08.191Z,9.57
2022-09-21T02:27:08.138Z,9.67
2022-09-21T02:28:08.126Z,9.62
2022-09-21T02:29:08.112Z,9.70
2022-09-21T02:30:08.113Z,9.62
2022-09-21T02:31:08.221Z,9.65
2022-09-21T02:32:08.089Z,9.59
2022-09-21T02:33:08.078Z,9.57
2022-09-21T02:34:08.114Z,9.59
2022-09-21T02:35:08.051Z,9.55
2022-09-21T02:36:08.065Z,9.60
2022-09-21T02:37:08.023Z,9.59
2022-09-21T02:38:08.015Z,9.55
2022-09-21T02:39:08.035Z,9.55
2022-09-21T02:40:08.073Z,9.52
2022-09-21T02:41:07.993Z,9.55
2022-09-21T02:42:07.990Z,9.52
2022-09-21T02:43:07.959Z,9.47
2022-09-21T02:44:07.963Z,9.44
2022-09-21T02:45:07.938Z,9.59
2022-09-21T02:46:07.995Z,9.44
2022-09-21T02:47:07.913Z,9.47
2022-09-21T02:48:07.909Z,9.45
2022-09-21T02:49:07.939Z,9.45
2022-09-21T02:50:07.885Z,9.54
2022-09-21T02:51:07.911Z,9.42
2022-09-21T02:52:07.857Z,9.48
2022-09-21T02:53:07.856Z,9.42
2022-09-21T02:54:07.832Z,9.47
2022-09-21T02:55:07.826Z,9.48
2022-09-21T02:56:07.890Z,9.45
2022-09-21T02:57:07.804Z,9.42
2022-09-21T02:58:07.812Z,9.36
2022-09-21T02:59:07.806Z,9.45
2022-09-21T03:00:07.768Z,9.50
2022-09-21T03:01:07.805Z,9.45
2022-09-21T03:02:07.757Z,9.40
2022-09-21T03:03:07.745Z,9.42
2022-09-21T03:04:07.787Z,9.50
2022-09-21T03:05:07.799Z,9.40
2022-09-21T03:06:07.723Z,9.36
2022-09-21T03:07:07.746Z,9.37
2022-09-21T03:08:07.686Z,9.41
2022-09-21T03:09:07.677Z,9.41
2022-09-21T03:10:07.660Z,9.42
2022-09-21T03:11:07.663Z,9.34
2022-09-21T03:12:07.636Z,9.40
2022-09-21T03:13:07.648Z,9.36
2022-09-21T03:14:07.640Z,9.36
2022-09-21T03:15:07.614Z,9.37
2022-09-21T03:16:07.640Z,9.42
2022-09-21T03:17:07.605Z,9.33
2022-09-21T03:18:07.584Z,9.34
2022-09-21T03:19:07.603Z,9.40
2022-09-21T03:20:07.548Z,9.34
2022-09-21T03:21:07.566Z,9.37
2022-09-21T03:22:07.534Z,9.40
2022-09-21T03:23:07.524Z,9.32
2022-09-21T03:24:07.556Z,9.24
2022-09-21T03:25:07.494Z,9.29
2022-09-21T03:26:07.505Z,9.24
2022-09-21T03:27:07.500Z,9.30
2022-09-21T03:28:07.501Z,9.33
2022-09-21T03:29:07.457Z,9.32
2022-09-21T03:30:07.455Z,9.34
2022-09-21T03:31:07.507Z,9.33
2022-09-21T03:32:07.431Z,9.30
2022-09-21T03:33:07.406Z,9.33
2022-09-21T03:34:07.424Z,9.32
2022-09-21T03:35:07.411Z,9.32
2022-09-21T03:36:07.460Z,9.27
2022-09-21T03:37:07.359Z,9.30
2022-09-21T03:38:07.385Z,9.32
2022-09-21T03:39:07.341Z,9.34
2022-09-21T03:40:07.350Z,9.27
2022-09-21T03:41:07.378Z,9.30
2022-09-21T03:42:07.337Z,9.33
2022-09-21T03:43:07.292Z,9.33
2022-09-21T03:44:07.284Z,9.33
2022-09-21T03:45:07.276Z,9.32
2022-09-21T03:46:07.542Z,9.30
2022-09-21T03:47:07.251Z,9.33
2022-09-21T03:48:07.237Z,9.32
2022-09-21T03:49:07.228Z,9.27
2022-09-21T03:50:09.989Z,9.26
2022-09-21T03:51:07.302Z,9.30
2022-09-21T03:52:07.198Z,9.30
2022-09-21T03:53:07.180Z,9.33
2022-09-21T03:54:07.178Z,9.34
2022-09-21T03:55:07.162Z,9.19
2022-09-21T03:56:07.180Z,9.30
2022-09-21T03:57:07.134Z,9.29
2022-09-21T03:58:07.167Z,9.29
2022-09-21T03:59:10.563Z,9.24
2022-09-21T04:00:08.138Z,9.33
2022-09-21T04:01:07.174Z,9.33
2022-09-21T04:02:07.230Z,9.37
2022-09-21T04:03:07.075Z,9.19
2022-09-21T04:04:07.063Z,9.32
2022-09-21T04:05:07.082Z,9.26
2022-09-21T04:06:07.037Z,9.27
2022-09-21T04:07:07.071Z,9.33
2022-09-21T04:08:07.021Z,9.34
2022-09-21T04:09:07.032Z,9.27
2022-09-21T04:10:06.997Z,9.34
2022-09-21T04:11:06.982Z,9.34
2022-09-21T04:12:06.985Z,9.30
2022-09-21T04:13:06.972Z,9.30
2022-09-21T04:14:06.952Z,9.32
2022-09-21T04:15:06.947Z,9.33
2022-09-21T04:16:06.961Z,9.30
2022-09-21T04:17:06.935Z,9.30
2022-09-21T04:18:06.932Z,9.27
2022-09-21T04:19:07.005Z,9.33
2022-09-21T04:20:06.879Z,9.29
2022-09-21T04:21:06.919Z,9.29
2022-09-21T04:22:06.905Z,9.32
2022-09-21T04:23:06.898Z,9.37
2022-09-21T04:24:06.838Z,9.34
2022-09-21T04:25:06.863Z,9.30
2022-09-21T04:26:06.815Z,9.22
2022-09-21T04:27:06.848Z,9.24
2022-09-21T04:28:06.785Z,9.36
2022-09-21T04:29:06.981Z,9.22
2022-09-21T04:30:06.822Z,9.27
2022-09-21T04:31:06.803Z,9.16
2022-09-21T04:32:06.792Z,9.29
2022-09-21T04:33:06.776Z,9.22
2022-09-21T04:34:06.762Z,9.19
2022-09-21T04:35:06.724Z,9.27
2022-09-21T04:36:06.705Z,9.24
2022-09-21T04:37:06.705Z,9.16
2022-09-21T04:40:11.918Z,9.16
2022-09-21T04:41:11.856Z,9.23
2022-09-21T04:42:11.837Z,9.22
2022-09-21T04:43:11.814Z,9.23
2022-09-21T04:44:11.801Z,9.26
2022-09-21T04:45:11.790Z,9.22
2022-09-21T04:46:11.823Z,9.18
2022-09-21T04:47:11.783Z,9.09
2022-09-21T04:48:11.760Z,9.11
2022-09-21T04:49:11.768Z,9.09
2022-09-21T04:50:11.737Z,9.14
2022-09-21T04:51:11.726Z,9.09
2022-09-21T04:52:14.747Z,9.06
2022-09-21T04:53:12.711Z,9.06
2022-09-21T04:54:11.696Z,9.12
2022-09-21T04:55:18.714Z,9.14
2022-09-21T04:56:11.673Z,9.16
2022-09-21T04:57:11.671Z,9.11
2022-09-21T04:58:11.646Z,9.09
2022-09-21T04:59:11.646Z,9.06
2022-09-21T05:00:11.636Z,9.11
2022-09-21T05:01:11.702Z,9.12
2022-09-21T05:02:11.620Z,9.03
2022-09-21T05:03:11.769Z,9.08
2022-09-21T05:04:11.677Z,9.06
2022-09-21T05:05:11.667Z,9.12
2022-09-21T05:06:11.569Z,9.09
2022-09-21T05:07:11.567Z,8.95
2022-09-21T05:08:11.601Z,9.03
2022-09-21T05:09:11.542Z,8.99
2022-09-21T05:10:11.519Z,9.06
2022-09-21T05:11:11.522Z,9.03
2022-09-21T05:12:11.511Z,9.01
2022-09-21T05:13:11.484Z,8.95
2022-09-21T05:14:11.537Z,9.04
2022-09-21T05:15:11.476Z,9.01
2022-09-21T05:16:11.454Z,9.08
2022-09-21T05:17:11.458Z,8.93
2022-09-21T05:18:11.438Z,8.92
2022-09-21T05:19:11.469Z,8.90
2022-09-21T05:20:11.416Z,8.98
2022-09-21T05:21:11.421Z,8.88
2022-09-21T05:22:11.413Z,8.88
2022-09-21T05:23:14.854Z,9.01
2022-09-21T05:24:12.372Z,8.88
2022-09-21T05:25:11.367Z,8.98
2022-09-21T05:26:11.353Z,8.96
2022-09-21T05:27:11.343Z,8.92
2022-09-21T05:28:11.323Z,8.89
2022-09-21T05:29:11.339Z,8.95
2022-09-21T05:30:11.353Z,8.86
2022-09-21T05:31:17.579Z,8.93
2022-09-21T05:32:12.306Z,8.86
2022-09-21T05:33:11.304Z,8.92
2022-09-21T05:34:11.263Z,8.95
2022-09-21T05:35:11.273Z,8.90
2022-09-21T05:36:11.256Z,8.95
2022-09-21T05:37:11.298Z,8.89
2022-09-21T05:38:11.218Z,8.93
2022-09-21T05:39:11.212Z,8.96
2022-09-21T05:40:11.238Z,8.83
2022-09-21T05:41:11.195Z,8.92
2022-09-21T05:42:11.205Z,8.90
2022-09-21T05:43:11.178Z,8.90
2022-09-21T05:44:11.159Z,8.89
2022-09-21T05:45:11.145Z,8.88
2022-09-21T05:46:11.199Z,8.93
2022-09-21T05:47:11.248Z,8.89
2022-09-21T05:48:11.108Z,8.88
2022-09-21T05:49:11.098Z,8.93
2022-09-21T05:50:11.116Z,8.86
2022-09-21T05:51:11.084Z,8.90
2022-09-21T05:52:11.099Z,8.93
2022-09-21T05:53:11.079Z,8.88
2022-09-21T05:54:11.074Z,8.90
2022-09-21T05:55:11.038Z,8.95
2022-09-21T05:56:11.050Z,8.88
2022-09-21T05:57:11.030Z,8.86
2022-09-21T05:58:11.029Z,8.88
2022-09-21T05:59:10.997Z,8.93
2022-09-21T06:00:11.046Z,8.89
2022-09-21T06:01:11.006Z,8.95
2022-09-21T06:02:11.107Z,8.90
2022-09-21T06:03:15.504Z,8.96
2022-09-21T06:04:11.968Z,9.06
2022-09-21T06:05:10.922Z,8.92
2022-09-21T06:06:10.918Z,8.95
2022-09-21T06:07:10.929Z,9.04
2022-09-21T06:08:10.923Z,9.03
2022-09-21T06:09:10.943Z,8.99
2022-09-21T06:10:10.885Z,8.99
2022-09-21T06:11:10.864Z,9.03
2022-09-21T06:12:10.889Z,9.08
2022-09-21T06:13:10.856Z,9.06
2022-09-21T06:14:10.861Z,9.09
2022-09-21T06:15:10.844Z,9.06
2022-09-21T06:16:10.821Z,9.11
2022-09-21T06:17:10.849Z,9.09
2022-09-21T06:18:15.535Z,9.08
2022-09-21T06:19:11.778Z,9.11
2022-09-21T06:20:10.769Z,9.08
2022-09-21T06:21:10.773Z,9.14
2022-09-21T06:22:10.759Z,9.11
2022-09-21T06:23:10.781Z,9.23
2022-09-21T06:24:10.733Z,9.14
2022-09-21T06:25:10.732Z,9.18
2022-09-21T06:26:10.704Z,9.16
2022-09-21T06:27:10.731Z,9.18
2022-09-21T06:28:10.698Z,9.27
2022-09-21T06:29:10.703Z,9.23
2022-09-21T06:30:10.670Z,9.30
2022-09-21T06:31:10.764Z,9.32
2022-09-21T06:32:10.657Z,9.36
2022-09-21T06:33:10.632Z,9.32
2022-09-21T06:34:10.635Z,9.26
2022-09-21T06:35:10.627Z,9.36
2022-09-21T06:36:10.606Z,9.33
2022-09-21T06:37:10.642Z,9.34
2022-09-21T06:38:10.615Z,9.44
2022-09-21T06:39:10.573Z,9.41
2022-09-21T06:40:10.615Z,9.36
2022-09-21T06:41:10.612Z,9.37
2022-09-21T06:42:10.632Z,9.40
2022-09-21T06:43:10.529Z,9.47
2022-09-21T06:44:10.509Z,9.50
2022-09-21T06:45:10.525Z,9.51
2022-09-21T06:46:10.519Z,9.51
2022-09-21T06:47:10.520Z,9.42
2022-09-21T06:48:10.477Z,9.44
2022-09-21T06:49:10.460Z,9.55
2022-09-21T06:50:10.456Z,9.59
2022-09-21T06:51:10.443Z,9.57
2022-09-21T06:52:10.443Z,9.57
2022-09-21T06:53:10.418Z,9.63
2022-09-21T06:54:10.439Z,9.60
2022-09-21T06:55:10.393Z,9.63
2022-09-21T06:56:10.406Z,9.62
2022-09-21T06:57:10.457Z,9.81
2022-09-21T06:58:10.427Z,9.78
2022-09-21T06:59:10.346Z,9.78
2022-09-21T07:00:10.350Z,9.78
2022-09-21T07:01:10.501Z,9.81
2022-09-21T07:02:10.615Z,9.85
2022-09-21T07:03:10.317Z,9.81
2022-09-21T07:04:10.338Z,9.90
2022-09-21T07:05:10.289Z,9.91
2022-09-21T07:06:10.262Z,9.87
2022-09-21T07:07:10.265Z,9.91
2022-09-21T07:10:05.007Z,9.96
2022-09-21T07:10:15.839Z,9.94
2022-09-21T07:11:11.215Z,10.01
2022-09-21T07:12:10.215Z,10.06
2022-09-21T07:13:10.209Z,10.12
2022-09-21T07:14:10.183Z,10.01
2022-09-21T07:15:10.185Z,10.09
2022-09-21T07:16:10.210Z,10.14
2022-09-21T07:17:15.611Z,10.14
2022-09-21T07:18:11.142Z,10.14
2022-09-21T07:19:11.312Z,10.17
2022-09-21T07:20:10.115Z,10.20
2022-09-21T07:21:10.148Z,10.24
2022-09-21T07:22:10.109Z,10.26
2022-09-21T07:23:10.129Z,10.28
2022-09-21T07:24:12.532Z,10.28
2022-09-21T07:25:10.058Z,10.28
2022-09-21T07:26:10.054Z,10.31
2022-09-21T07:27:10.070Z,10.45
2022-09-21T07:28:10.036Z,10.42
2022-09-21T07:29:10.038Z,10.42
2022-09-21T07:30:10.095Z,10.42
2022-09-21T07:31:10.042Z,10.49
2022-09-21T07:32:09.991Z,10.52
2022-09-21T07:33:09.984Z,10.58
2022-09-21T07:34:09.980Z,10.55
2022-09-21T07:35:09.944Z,10.65
2022-09-21T07:36:10.083Z,10.64
2022-09-21T07:37:09.965Z,10.65
2022-09-21T07:38:09.938Z,10.70
2022-09-21T07:39:09.910Z,10.75
2022-09-21T07:40:09.934Z,10.79
2022-09-21T07:41:09.883Z,10.75
2022-09-21T07:42:09.869Z,10.78
2022-09-21T07:43:09.877Z,10.91
2022-09-21T07:44:09.897Z,10.86
2022-09-21T07:45:09.865Z,10.85
2022-09-21T07:46:09.943Z,10.93
2022-09-21T07:47:09.824Z,10.91
2022-09-21T07:48:09.815Z,11.00
2022-09-21T07:49:09.828Z,11.00
2022-09-21T07:50:09.812Z,11.08
2022-09-21T07:51:09.784Z,11.03
2022-09-21T07:52:11.245Z,11.05
2022-09-21T07:53:09.760Z,11.05
2022-09-21T07:54:09.788Z,11.05
2022-09-21T07:55:09.733Z,11.19
2022-09-21T07:56:09.781Z,11.20
2022-09-21T07:57:09.740Z,11.16
2022-09-21T07:58:09.729Z,11.22
2022-09-21T07:59:09.687Z,11.22
2022-09-21T08:00:09.702Z,11.27
2022-09-21T08:01:09.766Z,11.27
2022-09-21T08:02:09.754Z,11.34
2022-09-21T08:03:09.682Z,11.33
2022-09-21T08:04:09.729Z,11.34
2022-09-21T08:05:09.625Z,11.45
2022-09-21T08:06:09.636Z,11.49
2022-09-21T08:07:09.602Z,11.48
2022-09-21T08:08:09.594Z,11.51
2022-09-21T08:09:09.592Z,11.56
2022-09-21T08:10:09.572Z,11.51
2022-09-21T08:11:09.569Z,11.51
2022-09-21T08:12:09.578Z,11.56
2022-09-21T08:13:09.546Z,11.67
2022-09-21T08:14:09.591Z,11.64
2022-09-21T08:15:25.009Z,11.69
2022-09-21T08:16:10.540Z,11.70
2022-09-21T08:17:09.527Z,11.77
2022-09-21T08:18:09.514Z,11.79
2022-09-21T08:19:09.473Z,11.80
2022-09-21T08:20:09.459Z,11.77
2022-09-21T08:21:11.260Z,11.80
2022-09-21T08:22:09.452Z,11.77
2022-09-21T08:23:09.428Z,11.88
2022-09-21T08:24:09.415Z,11.89
2022-09-21T08:25:09.423Z,11.87
2022-09-21T08:26:09.397Z,11.91
2022-09-21T08:27:09.663Z,12.04
2022-09-21T08:28:10.119Z,11.97
2022-09-21T08:29:09.363Z,12.00
2022-09-21T08:30:09.359Z,12.00
2022-09-21T08:31:09.368Z,11.96
2022-09-21T08:32:09.379Z,12.03
2022-09-21T08:33:09.343Z,12.08
2022-09-21T08:34:09.307Z,12.13
2022-09-21T08:35:09.335Z,12.13
2022-09-21T08:36:09.287Z,12.15
2022-09-21T08:37:09.292Z,12.18
2022-09-21T08:38:09.275Z,12.28
2022-09-21T08:39:09.249Z,12.29
2022-09-21T08:40:09.289Z,12.40
2022-09-21T08:41:09.241Z,12.38
2022-09-21T08:42:09.224Z,12.36
2022-09-21T08:43:09.237Z,12.40
2022-09-21T08:44:09.221Z,12.44
2022-09-21T08:45:09.197Z,12.46
2022-09-21T08:46:09.174Z,12.44
2022-09-21T08:47:09.177Z,12.44
2022-09-21T08:48:09.161Z,12.50
2022-09-21T08:49:09.188Z,12.51
2022-09-21T08:50:09.145Z,12.53
2022-09-21T08:51:09.133Z,12.59
2022-09-21T08:52:09.133Z,12.62
2022-09-21T08:53:09.148Z,12.65
2022-09-21T08:54:09.096Z,12.62
2022-09-21T08:55:09.096Z,12.66
2022-09-21T08:56:09.076Z,12.77
2022-09-21T08:57:09.060Z,12.71
2022-09-21T08:58:09.048Z,12.83
2022-09-21T08:59:09.042Z,12.79
2022-09-21T09:00:09.038Z,12.90
2022-09-21T09:01:09.143Z,12.87
2022-09-21T09:02:09.062Z,12.95
2022-09-21T09:03:08.995Z,12.93
2022-09-21T09:04:09.150Z,12.95
2022-09-21T09:05:08.991Z,12.98
2022-09-21T09:06:08.965Z,13.05
2022-09-21T09:07:08.975Z,13.02
2022-09-21T09:08:08.942Z,13.05
2022-09-21T09:09:09.074Z,13.06
2022-09-21T09:10:08.928Z,13.11
2022-09-21T09:11:08.904Z,13.20
2022-09-21T09:12:11.262Z,13.16
2022-09-21T09:13:08.912Z,13.23
2022-09-21T09:14:08.871Z,13.20
2022-09-21T09:15:08.861Z,13.29
2022-09-21T09:16:08.893Z,13.30
2022-09-21T09:17:08.843Z,13.39
2022-09-21T09:18:08.875Z,13.40
2022-09-21T09:19:08.820Z,13.39
2022-09-21T09:20:08.807Z,13.47
2022-09-21T09:21:08.836Z,13.40
2022-09-21T09:22:08.789Z,13.53
2022-09-21T09:23:08.821Z,13.51
2022-09-21T09:24:08.832Z,13.53
2022-09-21T09:25:08.764Z,13.51
2022-09-21T09:26:08.738Z,13.61
2022-09-21T09:27:08.731Z,13.63
2022-09-21T09:28:08.741Z,13.65
2022-09-21T09:29:08.708Z,13.67
2022-09-21T09:30:08.715Z,13.67
2022-09-21T09:31:08.744Z,13.75
2022-09-21T09:32:08.672Z,13.71
2022-09-21T09:33:08.669Z,13.73
2022-09-21T09:34:08.651Z,13.80
2022-09-21T09:35:08.650Z,13.78
2022-09-21T09:36:08.662Z,13.80
2022-09-21T09:37:08.640Z,13.78
2022-09-21T09:38:08.621Z,13.88
2022-09-21T09:39:08.631Z,13.88
2022-09-21T09:40:08.655Z,13.88
2022-09-21T09:41:08.595Z,13.90
2022-09-21T09:42:08.609Z,13.88
2022-09-21T09:43:08.559Z,13.93
2022-09-21T09:44:08.554Z,14.03
2022-09-21T09:45:08.538Z,13.98
2022-09-21T09:46:11.469Z,13.98
2022-09-21T09:47:08.523Z,14.04
2022-09-21T09:48:08.519Z,14.09
2022-09-21T09:49:08.502Z,14.04
2022-09-21T09:50:08.479Z,14.04
2022-09-21T09:51:08.490Z,14.09
2022-09-21T09:52:08.467Z,14.15
2022-09-21T09:53:08.468Z,14.18
2022-09-21T09:54:10.405Z,14.23
2022-09-21T09:55:08.468Z,14.15
2022-09-21T09:56:08.410Z,14.23
2022-09-21T09:57:08.431Z,14.22
2022-09-21T09:58:08.429Z,14.31
2022-09-21T09:59:08.381Z,14.30
2022-09-21T10:00:08.364Z,14.26
2022-09-21T10:01:08.361Z,14.33
2022-09-21T10:02:08.432Z,14.40
2022-09-21T10:03:08.338Z,14.41
2022-09-21T10:04:08.531Z,14.33
2022-09-21T10:05:08.376Z,14.48
2022-09-21T10:06:08.305Z,14.38
2022-09-21T10:07:08.309Z,14.52
2022-09-21T10:08:08.286Z,14.51
2022-09-21T10:09:08.347Z,14.63
2022-09-21T10:10:08.263Z,14.56
2022-09-21T10:11:08.249Z,14.61
2022-09-21T10:12:10.504Z,14.63
2022-09-21T10:13:08.232Z,14.70
2022-09-21T10:14:08.213Z,14.73
2022-09-21T10:15:08.214Z,14.85
2022-09-21T10:16:08.279Z,14.83
2022-09-21T10:17:08.199Z,14.77
2022-09-21T10:18:08.167Z,14.89
2022-09-21T10:19:08.226Z,14.95
2022-09-21T10:20:08.159Z,14.97
2022-09-21T10:21:08.148Z,15.03
2022-09-21T10:22:08.137Z,15.08
2022-09-21T10:23:08.127Z,15.07
2022-09-21T10:24:08.108Z,15.12
2022-09-21T10:25:08.153Z,15.12
2022-09-21T10:26:08.085Z,15.23
2022-09-21T10:27:08.075Z,15.29
2022-09-21T10:28:09.960Z,15.29
2022-09-21T10:29:08.055Z,15.44
2022-09-21T10:30:08.042Z,15.44
2022-09-21T10:31:08.139Z,15.45
2022-09-21T10:32:12.355Z,15.45
2022-09-21T10:33:09.010Z,15.50
2022-09-21T10:34:08.018Z,15.58
2022-09-21T10:35:07.986Z,15.60
2022-09-21T10:36:07.975Z,15.59
2022-09-21T10:37:07.970Z,15.73
2022-09-21T10:38:07.951Z,15.77
2022-09-21T10:39:07.999Z,15.80
2022-09-21T10:40:07.980Z,15.90
2022-09-21T10:41:07.941Z,15.98
2022-09-21T10:42:07.910Z,16.00
2022-09-21T10:43:07.897Z,16.05
2022-09-21T10:44:07.896Z,16.16
2022-09-21T10:45:07.891Z,16.18
2022-09-21T10:46:07.937Z,16.26
2022-09-21T10:47:07.858Z,16.37
2022-09-21T10:48:07.845Z,16.43
2022-09-21T10:49:07.839Z,16.46
2022-09-21T10:50:07.859Z,16.52
2022-09-21T10:51:07.814Z,16.61
2022-09-21T10:52:07.803Z,16.72
2022-09-21T10:53:07.792Z,16.77
2022-09-21T10:54:07.780Z,16.79
2022-09-21T10:55:07.786Z,16.88
2022-09-21T10:56:16.456Z,16.95
2022-09-21T10:57:08.769Z,17.12
2022-09-21T10:58:07.735Z,17.09
2022-09-21T10:59:07.733Z,17.20
2022-09-21T11:00:07.747Z,17.20
2022-09-21T11:01:07.751Z,17.37
2022-09-21T11:02:07.756Z,17.45
2022-09-21T11:03:07.742Z,17.49
2022-09-21T11:04:07.724Z,17.54
2022-09-21T11:05:07.666Z,17.62
2022-09-21T11:06:07.661Z,17.63
2022-09-21T11:07:07.642Z,17.68
2022-09-21T11:08:07.641Z,17.83
2022-09-21T11:09:14.701Z,17.86
2022-09-21T11:10:07.605Z,17.88
2022-09-21T11:11:07.598Z,17.93
2022-09-21T11:12:07.584Z,17.97
2022-09-21T11:13:07.608Z,17.99
2022-09-21T11:14:07.587Z,18.05
2022-09-21T11:15:07.551Z,18.12
2022-09-21T11:16:07.591Z,18.18
2022-09-21T11:17:07.542Z,18.27
2022-09-21T11:18:07.524Z,18.18
2022-09-21T11:19:07.507Z,18.24
2022-09-21T11:20:07.510Z,18.28
2022-09-21T11:21:07.488Z,18.36
2022-09-21T11:22:07.476Z,18.41
2022-09-21T11:23:07.464Z,18.38
2022-09-21T11:24:07.455Z,18.39
2022-09-21T11:25:07.502Z,18.42
2022-09-21T11:26:07.433Z,18.48
2022-09-21T11:27:07.418Z,18.46
2022-09-21T11:28:07.432Z,18.39
2022-09-21T11:29:07.416Z,18.49
2022-09-21T11:30:07.394Z,18.56
2022-09-21T11:31:07.447Z,18.56
2022-09-21T11:32:07.369Z,18.58
2022-09-21T11:33:07.356Z,18.63
2022-09-21T11:34:07.345Z,18.64
2022-09-21T11:35:07.367Z,18.82
2022-09-21T11:36:07.322Z,18.78
2022-09-21T11:37:07.330Z,18.88
2022-09-21T11:38:07.305Z,18.89
2022-09-21T11:39:07.296Z,18.89
2022-09-21T11:40:07.397Z,18.85
2022-09-21T11:41:07.277Z,18.97
2022-09-21T11:42:07.271Z,19.04
2022-09-21T11:43:07.258Z,19.09
2022-09-21T11:44:10.101Z,19.12
2022-09-21T11:45:07.295Z,19.12
2022-09-21T11:46:07.280Z,19.15
2022-09-21T11:47:07.219Z,19.16
2022-09-21T11:48:07.192Z,19.17
2022-09-21T11:49:07.234Z,19.26
2022-09-21T11:50:29.085Z,19.26
2022-09-21T11:51:08.161Z,19.31
2022-09-21T11:52:07.163Z,19.35
2022-09-21T11:53:07.137Z,19.34
2022-09-21T11:54:07.130Z,19.35
2022-09-21T11:55:07.120Z,19.37
2022-09-21T11:56:07.113Z,19.39
2022-09-21T11:57:07.105Z,19.42
2022-09-21T11:58:07.086Z,19.44
2022-09-21T11:59:07.383Z,19.37
2022-09-21T12:00:07.076Z,19.53
2022-09-21T12:01:07.069Z,19.45
2022-09-21T12:02:07.233Z,19.53
2022-09-21T12:03:07.030Z,19.50
2022-09-21T12:04:07.023Z,19.49
2022-09-21T12:05:07.016Z,19.56
2022-09-21T12:06:06.999Z,19.57
2022-09-21T12:07:06.995Z,19.59
2022-09-21T12:08:06.995Z,19.56
2022-09-21T12:09:06.970Z,19.59
2022-09-21T12:10:10.326Z,19.63
2022-09-21T12:11:06.947Z,19.74
2022-09-21T12:12:06.937Z,19.75
2022-09-21T12:13:06.937Z,20.12
2022-09-21T12:14:06.946Z,20.36
2022-09-21T12:15:06.973Z,20.53
2022-09-21T12:16:06.895Z,20.79
2022-09-21T12:17:06.958Z,21.18
2022-09-21T12:18:06.892Z,21.32
2022-09-21T12:19:06.969Z,21.73
2022-09-21T12:20:06.854Z,22.07
2022-09-21T12:21:06.844Z,22.27
2022-09-21T12:22:06.833Z,22.18
2022-09-21T12:23:06.824Z,22.04
2022-09-21T12:24:06.812Z,22.12
2022-09-21T12:25:06.806Z,21.84
2022-09-21T12:26:06.788Z,21.67
2022-09-21T12:27:06.776Z,21.66
2022-09-21T12:28:06.766Z,21.62
2022-09-21T12:29:06.764Z,21.51
2022-09-21T12:30:06.741Z,21.43
2022-09-21T12:31:06.774Z,21.43
2022-09-21T12:32:06.721Z,21.29
2022-09-21T12:33:06.741Z,21.32
2022-09-21T12:34:06.763Z,21.30
2022-09-21T12:35:06.680Z,21.29
2022-09-21T12:36:06.687Z,21.20
2022-09-21T12:37:06.663Z,21.18
2022-09-21T12:38:06.654Z,21.18
2022-09-21T12:39:06.681Z,21.16
2022-09-21T12:40:06.701Z,21.10
2022-09-21T12:41:06.623Z,21.08
2022-09-21T12:42:06.628Z,21.03
2022-09-21T12:43:08.137Z,20.98
2022-09-21T12:44:06.586Z,20.90
2022-09-21T12:45:06.575Z,20.89
2022-09-21T12:46:06.638Z,20.97
2022-09-21T12:47:06.587Z,20.98
2022-09-21T12:48:06.551Z,20.86
2022-09-21T12:49:06.551Z,20.82
2022-09-21T12:50:06.521Z,20.82
2022-09-21T12:51:06.512Z,20.82
2022-09-21T12:52:06.525Z,20.83
2022-09-21T12:53:06.498Z,20.98
2022-09-21T12:54:06.689Z,21.05
2022-09-21T12:55:06.487Z,21.18
2022-09-21T12:56:09.606Z,21.37
2022-09-21T12:57:23.567Z,21.47
2022-09-21T12:58:16.240Z,21.56
2022-09-21T12:59:07.485Z,21.73
2022-09-21T13:00:06.417Z,21.84
2022-09-21T13:01:06.560Z,21.85
2022-09-21T13:02:06.677Z,21.78
2022-09-21T13:03:09.832Z,21.85
2022-09-21T13:04:06.423Z,21.81
2022-09-21T13:05:06.379Z,21.90